createdAt,value
2018-12-29T00:00:32.550Z,102461.17
2018-12-29T00:03:01.016Z,102465.52
2018-12-29T00:05:29.455Z,102459.56
2018-12-29T00:07:57.919Z,102460.54
2018-12-29T00:10:26.353Z,102463.59
2018-12-29T00:12:54.827Z,102455.44
2018-12-29T00:15:23.264Z,102467.56
2018-12-29T00:17:51.726Z,102469.74
2018-12-29T00:20:20.168Z,102472.33
2018-12-29T00:22:48.640Z,102472.33
2018-12-29T00:25:17.079Z,102472.33
2018-12-29T00:27:45.556Z,102469.33
2018-12-29T00:30:14.006Z,102471.09
2018-12-29T00:32:42.479Z,102463.84
2018-12-29T00:35:10.920Z,102468.52
2018-12-29T00:37:39.387Z,102469.48
2018-12-29T00:40:07.827Z,102462.24
2018-12-29T00:42:37.374Z,102469.48
2018-12-29T00:45:06.183Z,102472.07
2018-12-29T00:47:34.780Z,102477.74
2018-12-29T00:50:03.592Z,102471.28
2018-12-29T00:52:32.066Z,102472.16
2018-12-29T00:55:00.514Z,102468.29
2018-12-29T00:57:28.997Z,102473.36
2018-12-29T00:59:57.443Z,102467.78
2018-12-29T01:02:25.911Z,102469.08
2018-12-29T01:04:54.421Z,102467.41
2018-12-29T01:07:22.891Z,102460.03
2018-12-29T01:09:51.554Z,102462.24
2018-12-29T01:12:20.024Z,102464.31
2018-12-29T01:14:48.469Z,102466.59
2018-12-29T01:17:16.937Z,102466.17
2018-12-29T01:19:45.375Z,102465.39
2018-12-29T01:22:13.977Z,102464.10
2018-12-29T01:24:42.431Z,102460.22
2018-12-29T01:27:10.896Z,102470.20
2018-12-29T01:29:39.336Z,102465.45
2018-12-29T01:32:07.805Z,102468.70
2018-12-29T01:34:36.251Z,102467.00
2018-12-29T01:37:04.694Z,102462.30
2018-12-29T01:39:33.170Z,102458.93
2018-12-29T01:42:01.619Z,102462.48
2018-12-29T01:44:30.087Z,102458.67
2018-12-29T01:46:58.534Z,102460.87
2018-12-29T01:49:27.133Z,102452.40
2018-12-29T01:51:55.572Z,102463.62
2018-12-29T01:54:24.034Z,102455.05
2018-12-29T01:56:52.478Z,102463.36
2018-12-29T01:59:20.954Z,102457.72
2018-12-29T02:01:49.418Z,102461.66
2018-12-29T02:04:17.882Z,102461.28
2018-12-29T02:06:46.331Z,102462.16
2018-12-29T02:09:14.800Z,102464.02
2018-12-29T02:11:43.240Z,102457.97
2018-12-29T02:14:11.711Z,102458.44
2018-12-29T02:16:40.155Z,102459.32
2018-12-29T02:19:08.629Z,102459.83
2018-12-29T02:21:37.081Z,102457.71
2018-12-29T02:24:05.559Z,102458.59
2018-12-29T02:26:34.015Z,102458.19
2018-12-29T02:29:02.497Z,102458.19
2018-12-29T02:31:30.994Z,102459.09
2018-12-29T02:33:59.476Z,102456.57
2018-12-29T02:36:27.928Z,102451.81
2018-12-29T02:38:56.417Z,102444.53
2018-12-29T02:41:24.921Z,102450.61
2018-12-29T02:43:53.402Z,102448.41
2018-12-29T02:46:21.859Z,102440.27
2018-12-29T02:48:50.338Z,102437.27
2018-12-29T02:51:18.782Z,102443.73
2018-12-29T02:53:47.264Z,102439.86
2018-12-29T02:56:15.709Z,102438.62
2018-12-29T02:58:44.224Z,102432.98
2018-12-29T03:01:12.672Z,102452.78
2018-12-29T03:03:41.155Z,102434.69
2018-12-29T03:06:09.603Z,102435.58
2018-12-29T03:08:38.081Z,102436.77
2018-12-29T03:11:06.527Z,102445.44
2018-12-29T03:13:35.010Z,102444.53
2018-12-29T03:16:03.454Z,102440.65
2018-12-29T03:18:31.940Z,102432.42
2018-12-29T03:21:00.387Z,102431.04
2018-12-29T03:23:28.869Z,102429.75
2018-12-29T03:25:57.323Z,102425.88
2018-12-29T03:28:25.807Z,102424.98
2018-12-29T03:30:54.257Z,102416.83
2018-12-29T03:33:22.739Z,102417.23
2018-12-29T03:35:51.185Z,102416.35
2018-12-29T03:38:19.714Z,102411.66
2018-12-29T03:40:48.116Z,102413.77
2018-12-29T03:43:16.597Z,102412.48
2018-12-29T03:45:49.092Z,102405.61
2018-12-29T03:48:15.249Z,102398.26
2018-12-29T03:50:43.699Z,102403.02
2018-12-29T03:53:12.181Z,102401.73
2018-12-29T03:55:40.639Z,102399.55
2018-12-29T03:58:09.100Z,102403.02
2018-12-29T04:00:37.577Z,102408.51
2018-12-29T04:03:06.029Z,102399.08
2018-12-29T04:05:34.508Z,102402.14
2018-12-29T04:08:02.969Z,102402.14
2018-12-29T04:10:31.451Z,102396.09
2018-12-29T04:12:59.903Z,102399.97
2018-12-29T04:15:28.542Z,102398.67
2018-12-29T04:17:56.992Z,102394.80
2018-12-29T04:20:25.477Z,102396.88
2018-12-29T04:22:53.924Z,102396.88
2018-12-29T04:25:24.078Z,102401.67
2018-12-29T04:27:52.533Z,102398.67
2018-12-29T04:30:21.012Z,102397.79
2018-12-29T04:32:49.458Z,102395.20
2018-12-29T04:35:17.928Z,102397.79
2018-12-29T04:37:46.386Z,102402.05
2018-12-29T04:40:14.860Z,102399.97
2018-12-29T04:42:43.318Z,102400.38
2018-12-29T04:45:11.797Z,102394.80
2018-12-29T04:47:40.271Z,102398.67
2018-12-29T04:50:08.753Z,102398.58
2018-12-29T04:52:37.204Z,102393.82
2018-12-29T04:55:05.674Z,102399.46
2018-12-29T04:57:34.117Z,102400.75
2018-12-29T05:00:02.615Z,102397.70
2018-12-29T05:02:31.073Z,102402.78
2018-12-29T05:04:59.551Z,102401.42
2018-12-29T05:07:28.004Z,102401.02
2018-12-29T05:09:56.569Z,102402.72
2018-12-29T05:12:25.021Z,102402.63
2018-12-29T05:14:53.492Z,102403.45
2018-12-29T05:17:21.943Z,102410.32
2018-12-29T05:19:50.424Z,102411.20
2018-12-29T05:22:18.877Z,102418.45
2018-12-29T05:24:47.357Z,102413.69
2018-12-29T05:27:15.802Z,102418.45
2018-12-29T05:29:44.272Z,102422.33
2018-12-29T05:32:12.726Z,102422.33
2018-12-29T05:34:41.209Z,102416.69
2018-12-29T05:37:09.658Z,102415.39
2018-12-29T05:39:38.132Z,102415.81
2018-12-29T05:42:06.583Z,102415.39
2018-12-29T05:44:35.059Z,102421.39
2018-12-29T05:47:03.513Z,102415.30
2018-12-29T05:49:31.984Z,102422.67
2018-12-29T05:52:00.491Z,102423.97
2018-12-29T05:54:28.966Z,102413.63
2018-12-29T05:56:57.419Z,102420.47
2018-12-29T05:59:25.900Z,102425.73
2018-12-29T06:01:54.356Z,102424.44
2018-12-29T06:04:22.833Z,102421.95
2018-12-29T06:06:51.284Z,102428.88
2018-12-29T06:09:19.758Z,102414.98
2018-12-29T06:11:48.206Z,102421.39
2018-12-29T06:14:16.661Z,102422.17
2018-12-29T06:16:45.245Z,102422.02
2018-12-29T06:19:13.694Z,102424.10
2018-12-29T06:21:42.174Z,102431.29
2018-12-29T06:24:10.623Z,102425.56
2018-12-29T06:26:39.111Z,102429.78
2018-12-29T06:29:07.564Z,102429.69
2018-12-29T06:31:36.032Z,102429.28
2018-12-29T06:34:04.484Z,102427.11
2018-12-29T06:36:32.955Z,102427.92
2018-12-29T06:39:01.410Z,102428.81
2018-12-29T06:41:29.906Z,102432.18
2018-12-29T06:43:58.358Z,102430.01
2018-12-29T06:46:26.826Z,102436.87
2018-12-29T06:48:55.268Z,102432.91
2018-12-29T06:51:23.744Z,102435.02
2018-12-29T06:53:52.199Z,102435.43
2018-12-29T06:56:20.669Z,102434.05
2018-12-29T06:58:49.196Z,102422.36
2018-12-29T07:01:17.661Z,102421.38
2018-12-29T07:03:46.787Z,102426.55
2018-12-29T07:06:15.365Z,102421.79
2018-12-29T07:08:43.803Z,102425.66
2018-12-29T07:11:12.273Z,102428.31
2018-12-29T07:13:40.723Z,102423.65
2018-12-29T07:16:09.168Z,102420.09
2018-12-29T07:18:37.637Z,102416.69
2018-12-29T07:21:06.089Z,102413.69
2018-12-29T07:23:34.564Z,102418.48
2018-12-29T07:26:03.022Z,102422.36
2018-12-29T07:28:31.495Z,102418.95
2018-12-29T07:30:59.980Z,102423.65
2018-12-29T07:33:28.450Z,102415.48
2018-12-29T07:35:56.898Z,102420.24
2018-12-29T07:38:25.371Z,102422.83
2018-12-29T07:40:53.816Z,102421.44
2018-12-29T07:43:22.300Z,102425.31
2018-12-29T07:45:50.756Z,102428.31
2018-12-29T07:48:19.233Z,102427.90
2018-12-29T07:50:47.684Z,102426.61
2018-12-29T07:53:16.156Z,102424.44
2018-12-29T07:55:44.601Z,102421.95
2018-12-29T07:58:13.076Z,102419.68
2018-12-29T08:00:41.523Z,102422.27
2018-12-29T08:03:09.996Z,102421.79
2018-12-29T08:05:38.450Z,102415.33
2018-12-29T08:08:06.923Z,102415.33
2018-12-29T08:10:35.382Z,102418.39
2018-12-29T08:13:03.859Z,102414.92
2018-12-29T08:15:32.312Z,102418.48
2018-12-29T08:18:00.765Z,102412.40
2018-12-29T08:20:29.343Z,102416.69
2018-12-29T08:22:57.797Z,102411.52
2018-12-29T08:25:26.269Z,102413.31
2018-12-29T08:27:54.721Z,102416.22
2018-12-29T08:30:23.189Z,102420.97
2018-12-29T08:32:51.639Z,102416.27
2018-12-29T08:35:20.187Z,102417.19
2018-12-29T08:37:48.651Z,102419.84
2018-12-29T08:40:17.128Z,102420.34
2018-12-29T08:42:45.573Z,102422.10
2018-12-29T08:45:14.053Z,102419.20
2018-12-29T08:47:42.501Z,102420.08
2018-12-29T08:50:13.304Z,102413.78
2018-12-29T08:52:41.151Z,102414.75
2018-12-29T08:55:09.620Z,102414.34
2018-12-29T08:57:38.072Z,102408.39
2018-12-29T09:00:07.484Z,102398.98
2018-12-29T09:02:35.938Z,102389.95
2018-12-29T09:05:04.661Z,102391.74
2018-12-29T09:07:33.111Z,102398.36
2018-12-29T09:10:01.573Z,102399.89
2018-12-29T09:12:30.039Z,102395.75
2018-12-29T09:14:58.497Z,102391.70
2018-12-29T09:17:26.971Z,102389.92
2018-12-29T09:19:55.424Z,102388.45
2018-12-29T09:22:23.898Z,102383.05
2018-12-29T09:24:52.343Z,102390.96
2018-12-29T09:27:20.823Z,102393.38
2018-12-29T09:29:49.274Z,102398.31
2018-12-29T09:32:17.748Z,102402.28
2018-12-29T09:34:46.199Z,102398.08
2018-12-29T09:37:14.675Z,102394.76
2018-12-29T09:39:43.128Z,102394.34
2018-12-29T09:42:11.900Z,102404.78
2018-12-29T09:44:40.357Z,102397.48
2018-12-29T09:47:08.832Z,102397.91
2018-12-29T09:49:37.280Z,102397.48
2018-12-29T09:52:05.852Z,102395.96
2018-12-29T09:54:34.308Z,102388.26
2018-12-29T09:57:02.770Z,102386.64
2018-12-29T09:59:31.212Z,102385.02
2018-12-29T10:01:59.691Z,102382.49
2018-12-29T10:04:28.145Z,102382.67
2018-12-29T10:06:56.616Z,102383.61
2018-12-29T10:09:25.094Z,102381.98
2018-12-29T10:11:53.523Z,102380.28
2018-12-29T10:14:21.990Z,102375.20
2018-12-29T10:16:50.436Z,102376.16
2018-12-29T10:19:18.913Z,102375.75
2018-12-29T10:21:47.373Z,102371.87
2018-12-29T10:24:15.839Z,102367.66
2018-12-29T10:26:44.281Z,102357.78
2018-12-29T10:29:12.765Z,102360.37
2018-12-29T10:31:41.215Z,102363.51
2018-12-29T10:34:09.698Z,102356.24
2018-12-29T10:36:38.154Z,102347.80
2018-12-29T10:39:07.101Z,102342.37
2018-12-29T10:41:35.553Z,102344.36
2018-12-29T10:44:04.032Z,102345.00
2018-12-29T10:46:32.490Z,102340.84
2018-12-29T10:49:00.987Z,102339.34
2018-12-29T10:51:29.413Z,102336.89
2018-12-29T10:53:57.882Z,102330.09
2018-12-29T10:56:26.337Z,102313.81
2018-12-29T10:58:54.812Z,102321.66
2018-12-29T11:01:23.524Z,102311.86
2018-12-29T11:03:53.723Z,102301.09
2018-12-29T11:06:22.177Z,102296.38
2018-12-29T11:08:50.652Z,102301.17
2018-12-29T11:11:19.103Z,102289.10
2018-12-29T11:13:47.578Z,102299.12
2018-12-29T11:16:17.376Z,102292.66
2018-12-29T11:18:45.816Z,102281.47
2018-12-29T11:21:14.295Z,102276.75
2018-12-29T11:23:42.730Z,102270.64
2018-12-29T11:26:11.198Z,102274.45
2018-12-29T11:28:39.642Z,102275.33
2018-12-29T11:31:08.110Z,102273.57
2018-12-29T11:33:36.696Z,102259.88
2018-12-29T11:36:05.187Z,102262.17
2018-12-29T11:38:33.599Z,102267.56
2018-12-29T11:41:02.069Z,102264.72
2018-12-29T11:43:30.521Z,102262.27
2018-12-29T11:45:58.989Z,102260.63
2018-12-29T11:48:27.423Z,102256.75
2018-12-29T11:50:55.895Z,102262.80
2018-12-29T11:53:24.338Z,102254.49
2018-12-29T11:55:52.810Z,102254.91
2018-12-29T11:58:21.248Z,102259.59
2018-12-29T12:00:49.713Z,102260.34
2018-12-29T12:03:18.347Z,102259.80
2018-12-29T12:05:46.812Z,102253.73
2018-12-29T12:08:15.249Z,102250.32
2018-12-29T12:10:43.696Z,102249.39
2018-12-29T12:13:12.171Z,102249.77
2018-12-29T12:15:40.612Z,102257.08
2018-12-29T12:18:09.083Z,102241.08
2018-12-29T12:20:37.532Z,102244.39
2018-12-29T12:23:06.001Z,102232.69
2018-12-29T12:25:34.451Z,102231.39
2018-12-29T12:28:03.397Z,102227.84
2018-12-29T12:30:31.852Z,102232.94
2018-12-29T12:33:00.325Z,102228.59
2018-12-29T12:35:28.778Z,102226.34
2018-12-29T12:37:57.715Z,102221.12
2018-12-29T12:40:26.306Z,102222.41
2018-12-29T12:42:55.537Z,102224.58
2018-12-29T12:45:23.980Z,102216.73
2018-12-29T12:47:52.458Z,102222.41
2018-12-29T12:50:20.978Z,102216.31
2018-12-29T12:52:49.456Z,102213.73
2018-12-29T12:55:17.911Z,102220.16
2018-12-29T12:57:46.382Z,102216.69
2018-12-29T13:00:15.116Z,102215.77
2018-12-29T13:02:43.579Z,102204.95
2018-12-29T13:05:12.031Z,102207.96
2018-12-29T13:07:40.508Z,102211.89
2018-12-29T13:10:08.959Z,102208.84
2018-12-29T13:12:37.429Z,102210.97
2018-12-29T13:15:06.520Z,102212.64
2018-12-29T13:17:35.074Z,102209.51
2018-12-29T13:20:05.107Z,102208.17
2018-12-29T13:22:33.794Z,102206.25
2018-12-29T13:25:02.246Z,102206.58
2018-12-29T13:27:31.088Z,102196.18
2018-12-29T13:29:59.545Z,102200.86
2018-12-29T13:32:28.018Z,102191.25
2018-12-29T13:34:56.492Z,102188.53
2018-12-29T13:37:24.955Z,102189.70
2018-12-29T13:39:53.403Z,102183.16
2018-12-29T13:42:21.881Z,102183.56
2018-12-29T13:44:50.328Z,102188.28
2018-12-29T13:47:18.821Z,102182.19
2018-12-29T13:49:47.274Z,102180.44
2018-12-29T13:52:15.739Z,102177.77
2018-12-29T13:54:46.033Z,102176.88
2018-12-29T13:57:14.489Z,102171.71
2018-12-29T13:59:42.963Z,102172.59
2018-12-29T14:02:11.421Z,102163.95
2018-12-29T14:04:39.903Z,102160.90
2018-12-29T14:07:08.355Z,102154.84
2018-12-29T14:09:36.830Z,102156.47
2018-12-29T14:12:05.273Z,102147.00
2018-12-29T14:14:33.740Z,102147.34
2018-12-29T14:17:02.210Z,102150.34
2018-12-29T14:19:30.671Z,102148.55
2018-12-29T14:21:59.124Z,102145.95
2018-12-29T14:24:29.107Z,102146.33
2018-12-29T14:26:57.625Z,102141.48
2018-12-29T14:29:26.094Z,102138.81
2018-12-29T14:31:54.548Z,102133.59
2018-12-29T14:34:23.024Z,102123.25
2018-12-29T14:36:51.653Z,102125.75
2018-12-29T14:39:20.131Z,102119.70
2018-12-29T14:41:48.580Z,102107.18
2018-12-29T14:44:17.054Z,102099.75
2018-12-29T14:46:47.862Z,102095.00
2018-12-29T14:49:16.722Z,102082.95
2018-12-29T14:51:45.169Z,102078.19
2018-12-29T14:54:13.637Z,102070.42
2018-12-29T14:56:42.088Z,102067.34
2018-12-29T14:59:10.558Z,102066.92
2018-12-29T15:01:39.390Z,102069.52
2018-12-29T15:04:07.858Z,102066.55
2018-12-29T15:06:36.312Z,102067.84
2018-12-29T15:09:06.461Z,102062.59
2018-12-29T15:11:34.916Z,102059.05
2018-12-29T15:14:03.385Z,102062.45
2018-12-29T15:16:32.223Z,102056.87
2018-12-29T15:19:00.699Z,102054.28
2018-12-29T15:21:29.526Z,102046.94
2018-12-29T15:23:57.975Z,102038.34
2018-12-29T15:26:26.481Z,102043.52
2018-12-29T15:28:54.934Z,102032.72
2018-12-29T15:31:23.408Z,102031.42
2018-12-29T15:33:51.861Z,102022.03
2018-12-29T15:36:20.335Z,102025.08
2018-12-29T15:38:48.780Z,102016.45
2018-12-29T15:41:17.256Z,102014.73
2018-12-29T15:43:46.081Z,102009.48
2018-12-29T15:46:14.550Z,102005.61
2018-12-29T15:48:42.996Z,102001.73
2018-12-29T15:51:11.749Z,102002.68
2018-12-29T15:53:40.217Z,102001.39
2018-12-29T15:56:10.307Z,101992.34
2018-12-29T15:58:38.765Z,101988.95
2018-12-29T16:01:07.619Z,101989.33
2018-12-29T16:03:36.072Z,101979.28
2018-12-29T16:06:04.628Z,101983.99
2018-12-29T16:08:33.072Z,101976.16
2018-12-29T16:11:01.563Z,101973.56
2018-12-29T16:13:30.005Z,101969.69
2018-12-29T16:15:58.474Z,101962.80
2018-12-29T16:18:27.304Z,101963.30
2018-12-29T16:20:55.943Z,101966.77
2018-12-29T16:23:26.147Z,101954.30
2018-12-29T16:25:54.604Z,101953.95
2018-12-29T16:28:23.134Z,101957.84
2018-12-29T16:30:51.606Z,101952.59
2018-12-29T16:33:20.068Z,101955.17
2018-12-29T16:35:48.515Z,101955.59
2018-12-29T16:38:16.970Z,101945.53
2018-12-29T16:40:47.520Z,101940.36
2018-12-29T16:43:15.973Z,101939.41
2018-12-29T16:45:44.419Z,101934.91
2018-12-29T16:48:13.407Z,101935.33
2018-12-29T16:50:41.860Z,101928.79
2018-12-29T16:53:10.337Z,101931.33
2018-12-29T16:55:38.787Z,101933.42
2018-12-29T16:58:07.533Z,101932.50
2018-12-29T17:00:35.984Z,101923.83
2018-12-29T17:03:04.459Z,101922.05
2018-12-29T17:05:32.896Z,101910.33
2018-12-29T17:08:01.653Z,101904.78
2018-12-29T17:10:30.108Z,101895.31
2018-12-29T17:12:58.579Z,101900.90
2018-12-29T17:15:27.041Z,101905.12
2018-12-29T17:17:55.524Z,101891.70
2018-12-29T17:20:24.049Z,101893.28
2018-12-29T17:22:52.532Z,101882.86
2018-12-29T17:25:20.978Z,101878.11
2018-12-29T17:27:49.457Z,101874.19
2018-12-29T17:30:17.963Z,101875.06
2018-12-29T17:32:46.817Z,101863.02
2018-12-29T17:35:15.664Z,101864.30
2018-12-29T17:37:44.234Z,101849.25
2018-12-29T17:40:12.684Z,101851.91
2018-12-29T17:42:41.161Z,101845.45
2018-12-29T17:45:09.890Z,101847.63
2018-12-29T17:47:38.371Z,101849.33
2018-12-29T17:50:07.293Z,101843.74
2018-12-29T17:52:35.821Z,101842.11
2018-12-29T17:55:04.819Z,101836.48
2018-12-29T17:57:33.298Z,101829.07
2018-12-29T18:00:01.753Z,101826.06
2018-12-29T18:02:30.213Z,101826.48
2018-12-29T18:04:58.683Z,101824.70
2018-12-29T18:07:27.313Z,101815.11
2018-12-29T18:09:57.237Z,101812.07
2018-12-29T18:12:26.026Z,101803.44
2018-12-29T18:14:54.540Z,101808.00
2018-12-29T18:17:23.028Z,101803.17
2018-12-29T18:19:51.503Z,101795.22
2018-12-29T18:22:20.028Z,101792.09
2018-12-29T18:24:48.709Z,101788.98
2018-12-29T18:27:18.244Z,101779.89
2018-12-29T18:29:46.808Z,101765.94
2018-12-29T18:32:15.259Z,101763.23
2018-12-29T18:34:43.733Z,101760.11
2018-12-29T18:37:12.554Z,101736.78
2018-12-29T18:39:41.036Z,101732.03
2018-12-29T18:42:09.485Z,101722.04
2018-12-29T18:44:37.962Z,101711.25
2018-12-29T18:47:06.414Z,101703.08
2018-12-29T18:49:38.669Z,101690.16
2018-12-29T18:52:05.346Z,101678.08
2018-12-29T18:54:33.827Z,101688.34
2018-12-29T18:57:02.291Z,101687.87
2018-12-29T18:59:31.432Z,101686.52
2018-12-29T19:01:59.898Z,101685.17
2018-12-29T19:04:28.465Z,101681.23
2018-12-29T19:06:56.950Z,101679.06
2018-12-29T19:09:25.414Z,101668.19
2018-12-29T19:11:54.341Z,101658.66
2018-12-29T19:14:23.245Z,101650.45
2018-12-29T19:16:52.214Z,101651.21
2018-12-29T19:19:21.050Z,101643.00
2018-12-29T19:21:49.565Z,101644.14
2018-12-29T19:24:18.153Z,101628.19
2018-12-29T19:26:46.636Z,101626.41
2018-12-29T19:29:15.083Z,101620.78
2018-12-29T19:32:44.401Z,101620.59
2018-12-29T19:34:13.731Z,101615.31
2018-12-29T19:36:42.202Z,101614.44
2018-12-29T19:39:11.032Z,101604.91
2018-12-29T19:41:46.339Z,101598.41
2018-12-29T19:44:09.691Z,101595.34
2018-12-29T19:46:38.537Z,101582.84
2018-12-29T19:49:06.984Z,101578.97
2018-12-29T19:51:35.453Z,101576.69
2018-12-29T19:54:04.476Z,101567.53
2018-12-29T19:56:35.518Z,101557.59
2018-12-29T19:59:04.320Z,101552.80
2018-12-29T20:01:32.851Z,101554.89
2018-12-29T20:04:01.682Z,101542.74
2018-12-29T20:06:30.544Z,101541.87
2018-12-29T20:08:58.994Z,101531.47
2018-12-29T20:11:27.448Z,101526.31
2018-12-29T20:13:55.924Z,101524.07
2018-12-29T20:16:24.364Z,101515.87
2018-12-29T20:18:52.971Z,101521.03
2018-12-29T20:21:21.426Z,101517.62
2018-12-29T20:23:49.908Z,101512.00
2018-12-29T20:26:18.734Z,101511.13
2018-12-29T20:28:47.197Z,101509.88
2018-12-29T20:31:15.651Z,101510.17
2018-12-29T20:33:44.141Z,101509.34
2018-12-29T20:36:12.580Z,101498.22
2018-12-29T20:38:41.044Z,101495.98
2018-12-29T20:41:09.496Z,101492.87
2018-12-29T20:43:38.140Z,101493.74
2018-12-29T20:46:06.585Z,101490.21
2018-12-29T20:48:35.077Z,101481.14
2018-12-29T20:51:03.511Z,101480.19
2018-12-29T20:53:32.348Z,101478.91
2018-12-29T20:56:01.949Z,101467.74
2018-12-29T20:58:30.413Z,101470.28
2018-12-29T21:00:58.861Z,101471.58
2018-12-29T21:03:27.328Z,101467.70
2018-12-29T21:05:55.775Z,101461.18
2018-12-29T21:08:24.248Z,101462.43
2018-12-29T21:10:52.972Z,101461.48
2018-12-29T21:13:21.441Z,101455.91
2018-12-29T21:15:50.018Z,101452.91
2018-12-29T21:18:18.509Z,101448.09
2018-12-29T21:20:47.206Z,101450.67
2018-12-29T21:23:15.654Z,101445.51
2018-12-29T21:25:44.194Z,101442.55
2018-12-29T21:28:12.639Z,101434.39
2018-12-29T21:30:41.115Z,101432.67
2018-12-29T21:33:09.607Z,101429.68
2018-12-29T21:35:38.139Z,101429.34
2018-12-29T21:38:08.306Z,101422.47
2018-12-29T21:40:36.829Z,101426.41
2018-12-29T21:43:05.316Z,101422.12
2018-12-29T21:45:33.792Z,101414.38
2018-12-29T21:48:02.244Z,101413.51
2018-12-29T21:50:30.720Z,101409.22
2018-12-29T21:52:59.178Z,101404.13
2018-12-29T21:55:27.658Z,101399.42
2018-12-29T21:57:56.107Z,101396.84
2018-12-29T22:00:24.580Z,101397.79
2018-12-29T22:02:53.165Z,101396.95
2018-12-29T22:05:21.716Z,101390.98
2018-12-29T22:07:50.230Z,101394.03
2018-12-29T22:10:18.720Z,101385.83
2018-12-29T22:12:47.173Z,101388.87
2018-12-29T22:15:15.644Z,101382.83
2018-12-29T22:17:44.156Z,101383.70
2018-12-29T22:20:12.905Z,101377.36
2018-12-29T22:22:41.358Z,101379.52
2018-12-29T22:25:09.825Z,101371.84
2018-12-29T22:27:38.280Z,101370.62
2018-12-29T22:30:07.199Z,101338.25
2018-12-29T22:32:35.665Z,101364.81
2018-12-29T22:35:04.558Z,101356.72
2018-12-29T22:37:33.031Z,101364.91
2018-12-29T22:40:01.491Z,101355.95
2018-12-29T22:42:30.035Z,101356.37
2018-12-29T22:44:58.483Z,101347.72
2018-12-29T22:47:27.130Z,101341.33
2018-12-29T22:49:55.568Z,101337.91
2018-12-29T22:52:24.037Z,101340.56
2018-12-29T22:54:52.482Z,101340.14
2018-12-29T22:57:20.960Z,101334.56
2018-12-29T22:59:49.408Z,101330.30
2018-12-29T23:02:17.887Z,101326.89
2018-12-29T23:04:46.355Z,101323.95
2018-12-29T23:07:15.177Z,101325.70
2018-12-29T23:09:43.627Z,101327.86
2018-12-29T23:12:12.101Z,101324.41
2018-12-29T23:14:40.558Z,101329.64
2018-12-29T23:17:09.019Z,101321.02
2018-12-29T23:19:37.469Z,101318.47
2018-12-29T23:22:05.972Z,101324.58
2018-12-29T23:24:34.436Z,101317.28
2018-12-29T23:27:02.890Z,101322.52
2018-12-29T23:29:31.363Z,101320.35
2018-12-29T23:31:59.855Z,101325.09
2018-12-29T23:34:28.700Z,101325.16
2018-12-29T23:36:57.164Z,101327.78
2018-12-29T23:39:25.623Z,101319.68
2018-12-29T23:41:54.353Z,101318.45
2018-12-29T23:44:22.840Z,101316.75
2018-12-29T23:46:51.300Z,101316.81
2018-12-29T23:49:20.157Z,101312.97
2018-12-29T23:51:48.600Z,101312.63
2018-12-29T23:54:17.157Z,101314.36
2018-12-29T23:56:46.007Z,101314.02
2018-12-29T23:59:14.499Z,101311.01
